Weather at Breckenridge Airport

Public forecast

Using degrees Fahrenheit for public forecast. Weather courtesy of forecast.io.

Closest aviation weather report (METAR) to Breckenridge Airport

Closest report is Meadows Field, 10.7 nm (19.8 km) WNW. Retrieved 2021/05/12 03:54 UTC (60 minutes ago):

KBFL 120354Z 02006KT 9SM CLR 29/03 A2983 RMK AO2 SLP095 T02940028

Closest aviation forecast (TAF) to Breckenridge Airport

Closest forecast is Meadows Field, 10.7 nm (19.8 km) WNW. Retrieved 2021-05-12 00:22 UTC (5 hours ago):

TAF KBFL 112320Z 1200/1224 33009KT P6SM SKC